Time;durP1;ratioP1;P1;durP2;ratioP2;P2;SDS_P1;SDS_P2;PMS_P1;PMS_P2;Temp;Humidity;BMP_temperature;BMP_pressure;BME280_temperature;BME280_humidity;BME280_pressure;Samples;Min_cycle;Max_cycle;Signal;HPM_P1;HPM_P2
2023/02/06 00:01:58;;;;;;;;;;;4.20;99.90;;;;;;5053604;28;19909;-80
2023/02/06 00:04:24;;;;;;;;;;;4.20;99.90;;;;;;5054891;28;20004;-79
2023/02/06 00:06:49;;;;;;;;;;;4.20;99.90;;;;;;5054729;28;19972;-80
2023/02/06 00:09:15;;;;;;;;;;;4.20;99.90;;;;;;5054594;28;19916;-80
2023/02/06 00:11:40;;;;;;;;;;;4.20;99.90;;;;;;5052938;28;19909;-81
2023/02/06 00:14:06;;;;;;;;;;;4.20;99.90;;;;;;5054887;28;19909;-80
2023/02/06 00:16:32;;;;;;;;;;;4.20;99.90;;;;;;5055169;28;19909;-81
2023/02/06 00:18:58;;;;;;;;;;;4.30;99.90;;;;;;5055317;28;19909;-80
2023/02/06 00:21:24;;;;;;;;;;;4.20;99.90;;;;;;5055268;28;19920;-80
2023/02/06 00:23:51;;;;;;;;;;;4.20;99.90;;;;;;5037393;28;19908;-80
2023/02/06 00:26:16;;;;;;;;;;;4.30;99.90;;;;;;5054384;28;20099;-79
2023/02/06 00:28:42;;;;;;;;;;;4.30;99.90;;;;;;5054556;28;20442;-80
2023/02/06 00:31:08;;;;;;;;;;;4.30;99.90;;;;;;5055145;28;19909;-80
2023/02/06 00:33:34;;;;;;;;;;;4.30;99.90;;;;;;5055121;28;19958;-80
2023/02/06 00:35:59;;;;;;;;;;;4.30;99.90;;;;;;5055220;28;19942;-81
2023/02/06 00:38:25;;;;;;;;;;;4.20;99.90;;;;;;5055605;28;19908;-79
2023/02/06 00:40:50;;;;;;;;;;;4.30;99.90;;;;;;5058420;28;19915;-80
2023/02/06 00:43:16;;;;;;;;;;;4.30;99.90;;;;;;5059622;28;20404;-79
2023/02/06 00:45:41;;;;;;;;;;;4.20;99.90;;;;;;5059434;28;19908;-80
2023/02/06 00:48:08;;;;;;;;;;;4.20;99.90;;;;;;5059139;28;19909;-81
2023/02/06 00:50:33;;;;;;;;;;;4.10;99.90;;;;;;5059056;28;19913;-79
2023/02/06 00:52:59;;;;;;;;;;;4.10;99.90;;;;;;5058523;28;19909;-80
2023/02/06 00:55:24;;;;;;;;;;;4.00;99.90;;;;;;5058962;28;20012;-79
2023/02/06 00:57:50;;;;;;;;;;;4.00;99.90;;;;;;5058821;28;20401;-79
2023/02/06 01:00:15;;;;;;;;;;;4.00;99.90;;;;;;5040877;28;19959;-79
2023/02/06 01:02:41;;;;;;;;;;;4.10;99.90;;;;;;5040460;28;19959;-80
2023/02/06 01:05:06;;;;;;;;;;;4.10;99.90;;;;;;5058927;28;19909;-79
2023/02/06 01:07:32;;;;;;;;;;;4.10;99.90;;;;;;5058687;28;19971;-80
2023/02/06 01:09:57;;;;;;;;;;;4.10;99.90;;;;;;5057163;28;19923;-80
2023/02/06 01:12:23;;;;;;;;;;;4.10;99.90;;;;;;5057890;28;20398;-80
2023/02/06 01:14:48;;;;;;;;;;;4.10;99.90;;;;;;5056326;28;19909;-80
2023/02/06 01:17:14;;;;;;;;;;;4.10;99.90;;;;;;5058330;28;19975;-79
2023/02/06 01:19:39;;;;;;;;;;;4.10;99.90;;;;;;5040341;28;19909;-81
2023/02/06 01:22:05;;;;;;;;;;;4.10;99.90;;;;;;5057984;28;19909;-79
2023/02/06 01:24:30;;;;;;;;;;;4.00;99.90;;;;;;5057610;28;19909;-79
2023/02/06 01:26:56;;;;;;;;;;;4.00;99.90;;;;;;5058009;28;19916;-80
2023/02/06 01:29:21;;;;;;;;;;;3.90;99.90;;;;;;5058206;28;19916;-80
2023/02/06 01:31:47;;;;;;;;;;;3.90;99.90;;;;;;5057424;28;19909;-79
2023/02/06 01:34:12;;;;;;;;;;;3.80;99.90;;;;;;5057386;28;19924;-79
2023/02/06 01:36:38;;;;;;;;;;;3.80;99.90;;;;;;5057634;28;19909;-80
2023/02/06 01:39:04;;;;;;;;;;;3.70;99.90;;;;;;5057617;28;19916;-80
2023/02/06 01:41:30;;;;;;;;;;;3.70;99.90;;;;;;5056000;28;20006;-80
2023/02/06 01:44:12;;;;;;;;;;;3.60;99.90;;;;;;5039359;28;19912;-79
2023/02/06 01:46:39;;;;;;;;;;;3.60;99.90;;;;;;5063672;28;19912;-81
2023/02/06 01:49:07;;;;;;;;;;;3.50;99.90;;;;;;5043656;28;19958;-81
2023/02/06 01:51:33;;;;;;;;;;;3.50;99.90;;;;;;5057251;28;19935;-81
2023/02/06 01:54:02;;;;;;;;;;;3.50;99.90;;;;;;5058711;28;19913;-80
2023/02/06 01:56:31;;;;;;;;;;;3.40;99.90;;;;;;5058331;28;19955;-80
2023/02/06 01:58:58;;;;;;;;;;;3.40;99.90;;;;;;5056936;28;19913;-80
2023/02/06 02:01:23;;;;;;;;;;;3.40;99.90;;;;;;5056179;28;20004;-80
2023/02/06 02:03:53;;;;;;;;;;;3.30;99.90;;;;;;5056402;28;19952;-80
2023/02/06 02:06:21;;;;;;;;;;;3.30;99.90;;;;;;5058099;28;19909;-81
2023/02/06 02:08:47;;;;;;;;;;;3.30;99.90;;;;;;5039898;28;19995;-79
2023/02/06 02:11:15;;;;;;;;;;;3.30;99.90;;;;;;5057313;28;19936;-81
2023/02/06 02:13:41;;;;;;;;;;;3.30;99.90;;;;;;5057399;28;20012;-80
2023/02/06 02:16:13;;;;;;;;;;;3.20;99.90;;;;;;5057478;28;19970;-81
2023/02/06 02:18:49;;;;;;;;;;;3.10;99.90;;;;;;5056346;28;19908;-81
2023/02/06 02:21:33;;;;;;;;;;;3.10;99.90;;;;;;5039000;28;19916;-79
2023/02/06 02:24:02;;;;;;;;;;;3.10;99.90;;;;;;5057124;28;19909;-79
2023/02/06 02:26:51;;;;;;;;;;;3.00;99.90;;;;;;5055674;28;19916;-80
2023/02/06 02:29:35;;;;;;;;;;;3.00;99.90;;;;;;5036821;28;20369;-79
2023/02/06 02:32:08;;;;;;;;;;;3.00;99.90;;;;;;5056358;28;19916;-80
2023/02/06 02:34:43;;;;;;;;;;;2.90;99.90;;;;;;5056172;28;19917;-80
2023/02/06 02:37:11;;;;;;;;;;;2.80;99.90;;;;;;5056514;28;19913;-80
2023/02/06 02:39:51;;;;;;;;;;;2.80;99.90;;;;;;5056498;28;19909;-79
2023/02/06 02:42:35;;;;;;;;;;;2.80;99.90;;;;;;5056134;28;19916;-80
2023/02/06 02:45:13;;;;;;;;;;;2.70;99.90;;;;;;5055157;28;19908;-81
2023/02/06 02:47:45;;;;;;;;;;;2.70;99.90;;;;;;5056231;28;19915;-79
2023/02/06 02:50:10;;;;;;;;;;;2.70;99.90;;;;;;5054653;28;19935;-80
2023/02/06 02:52:36;;;;;;;;;;;2.60;99.90;;;;;;5037618;28;20418;-80
2023/02/06 02:55:12;;;;;;;;;;;2.60;99.90;;;;;;5055851;28;20385;-79
2023/02/06 02:57:38;;;;;;;;;;;2.60;99.90;;;;;;5056035;28;19909;-80
2023/02/06 03:00:03;;;;;;;;;;;2.60;99.90;;;;;;5056016;28;19908;-79
2023/02/06 03:02:37;;;;;;;;;;;2.60;99.90;;;;;;5037353;28;19912;-79
2023/02/06 03:05:07;;;;;;;;;;;2.70;99.90;;;;;;5056142;28;19909;-80
2023/02/06 03:07:42;;;;;;;;;;;2.70;99.90;;;;;;5055613;28;19909;-79
2023/02/06 03:10:19;;;;;;;;;;;2.70;99.90;;;;;;5054662;28;19938;-80
2023/02/06 03:12:48;;;;;;;;;;;2.70;99.90;;;;;;5055822;28;19912;-80
2023/02/06 03:15:26;;;;;;;;;;;2.70;99.90;;;;;;5055926;28;19959;-79
2023/02/06 03:17:57;;;;;;;;;;;2.70;99.90;;;;;;5059393;28;19908;-79
2023/02/06 03:20:23;;;;;;;;;;;2.70;99.90;;;;;;5061665;28;19969;-80
2023/02/06 03:22:49;;;;;;;;;;;2.70;99.90;;;;;;5056687;28;19909;-80
2023/02/06 03:25:17;;;;;;;;;;;2.70;99.90;;;;;;5057645;28;19912;-80
2023/02/06 03:27:43;;;;;;;;;;;2.70;99.90;;;;;;5056831;28;19955;-81
2023/02/06 03:30:10;;;;;;;;;;;2.70;99.90;;;;;;5057505;28;20011;-80
2023/02/06 03:32:40;;;;;;;;;;;2.60;99.90;;;;;;5057415;28;19919;-80
2023/02/06 03:35:09;;;;;;;;;;;2.60;99.90;;;;;;5056400;28;19916;-80
2023/02/06 03:37:35;;;;;;;;;;;2.60;99.90;;;;;;5056868;28;19908;-80
2023/02/06 03:40:02;;;;;;;;;;;2.60;99.90;;;;;;5056213;28;19909;-80
2023/02/06 03:42:28;;;;;;;;;;;2.50;99.90;;;;;;5038560;28;20365;-80
2023/02/06 03:44:56;;;;;;;;;;;2.40;99.90;;;;;;5055547;28;19908;-79
2023/02/06 03:47:23;;;;;;;;;;;2.40;99.90;;;;;;5054991;28;19909;-81
2023/02/06 03:49:49;;;;;;;;;;;2.40;99.90;;;;;;5054476;28;19919;-80
2023/02/06 03:52:17;;;;;;;;;;;2.40;99.90;;;;;;5055943;28;19919;-80
2023/02/06 03:54:47;;;;;;;;;;;2.40;99.90;;;;;;5055648;28;20378;-80
2023/02/06 03:57:18;;;;;;;;;;;2.30;99.90;;;;;;5038167;28;20358;-79
2023/02/06 03:59:44;;;;;;;;;;;2.30;99.90;;;;;;5055950;28;20441;-79
2023/02/06 04:02:10;;;;;;;;;;;2.30;99.90;;;;;;5055503;28;19912;-80
2023/02/06 04:04:37;;;;;;;;;;;2.20;99.90;;;;;;5055128;28;19933;-80
2023/02/06 04:07:22;;;;;;;;;;;2.20;99.90;;;;;;5037276;28;19909;-80
2023/02/06 04:09:47;;;;;;;;;;;2.20;99.90;;;;;;5054937;28;19917;-80
2023/02/06 04:12:14;;;;;;;;;;;2.10;99.90;;;;;;5036493;28;20059;-80
2023/02/06 04:14:40;;;;;;;;;;;2.10;99.90;;;;;;5036251;28;19944;-79
2023/02/06 04:17:05;;;;;;;;;;;2.00;99.90;;;;;;5054960;28;20324;-80
2023/02/06 04:19:31;;;;;;;;;;;2.00;99.90;;;;;;5054632;28;19909;-80
2023/02/06 04:21:56;;;;;;;;;;;2.00;99.90;;;;;;5036554;28;19908;-80
2023/02/06 04:24:22;;;;;;;;;;;1.90;99.90;;;;;;5053140;28;19908;-81
2023/02/06 04:26:47;;;;;;;;;;;2.00;99.90;;;;;;5036214;28;19916;-79
2023/02/06 04:29:13;;;;;;;;;;;1.90;99.90;;;;;;5054800;28;19909;-80
2023/02/06 04:31:39;;;;;;;;;;;2.00;99.90;;;;;;5054620;28;19909;-79
2023/02/06 04:34:04;;;;;;;;;;;2.00;99.90;;;;;;5054857;28;20286;-79
2023/02/06 04:36:30;;;;;;;;;;;2.10;99.90;;;;;;5054737;28;19912;-80
2023/02/06 04:38:56;;;;;;;;;;;2.20;99.90;;;;;;5036806;28;19952;-79
2023/02/06 04:41:21;;;;;;;;;;;2.40;99.90;;;;;;5053012;28;19909;-79
2023/02/06 04:43:47;;;;;;;;;;;2.50;99.90;;;;;;5054309;28;19909;-79
2023/02/06 04:46:12;;;;;;;;;;;2.60;99.90;;;;;;5036439;28;19942;-79
2023/02/06 04:48:38;;;;;;;;;;;2.70;99.90;;;;;;5054445;28;20453;-79
2023/02/06 04:51:03;;;;;;;;;;;2.80;99.90;;;;;;5058078;28;19913;-80
2023/02/06 04:53:29;;;;;;;;;;;2.90;99.90;;;;;;5057417;28;19944;-81
2023/02/06 04:56:01;;;;;;;;;;;3.00;99.90;;;;;;5055688;28;19930;-80
2023/02/06 04:58:26;;;;;;;;;;;3.00;99.90;;;;;;5055326;28;20370;-80
2023/02/06 05:00:52;;;;;;;;;;;3.10;99.90;;;;;;5055029;28;19909;-81
2023/02/06 05:03:17;;;;;;;;;;;3.20;99.90;;;;;;5054891;28;19909;-80
2023/02/06 05:05:43;;;;;;;;;;;3.20;99.90;;;;;;5055124;28;19916;-80
2023/02/06 05:08:08;;;;;;;;;;;3.30;99.90;;;;;;5053864;28;19916;-79
2023/02/06 05:10:34;;;;;;;;;;;3.30;99.90;;;;;;5053834;28;20357;-81
2023/02/06 05:12:59;;;;;;;;;;;3.40;99.90;;;;;;5036585;28;19984;-80
2023/02/06 05:15:25;;;;;;;;;;;3.50;99.90;;;;;;5054445;28;19931;-80
2023/02/06 05:17:50;;;;;;;;;;;3.50;99.90;;;;;;5054821;28;20285;-80
2023/02/06 05:20:16;;;;;;;;;;;3.60;99.90;;;;;;5054674;28;19913;-80
2023/02/06 05:22:41;;;;;;;;;;;3.60;99.90;;;;;;5052977;28;19913;-80
2023/02/06 05:25:07;;;;;;;;;;;3.70;99.90;;;;;;5054750;28;19915;-80
2023/02/06 05:27:32;;;;;;;;;;;3.70;99.90;;;;;;5057120;28;19948;-79
2023/02/06 05:29:57;;;;;;;;;;;3.80;99.90;;;;;;5057936;28;19913;-79
2023/02/06 05:32:23;;;;;;;;;;;3.80;99.90;;;;;;5057433;28;19908;-80
2023/02/06 05:40:21;;;;;;;;;;;;;;;;;;;;;
2023/02/06 05:42:55;;;;;;;;;;;3.80;99.90;;;;;;5076901;28;19913;-81
2023/02/06 05:45:44;;;;;;;;;;;3.80;99.90;;;;;;5066425;28;19935;-82
2023/02/06 05:48:40;;;;;;;;;;;3.90;99.90;;;;;;5064943;28;19995;-80
2023/02/06 05:54:07;;;;;;;;;;;3.80;99.90;;;;;;5069145;28;19913;-80
2023/02/06 05:57:07;;;;;;;;;;;3.80;99.90;;;;;;5058203;28;19912;-80
2023/02/06 06:00:01;;;;;;;;;;;3.90;99.90;;;;;;5055139;28;19909;-81
2023/02/06 06:03:00;;;;;;;;;;;3.90;99.90;;;;;;5022164;28;20281;-81
2023/02/06 06:08:53;;;;;;;;;;;4.00;99.90;;;;;;5047981;28;19909;-80
2023/02/06 06:17:15;;;;;;;;;;;4.00;99.90;;;;;;5021880;28;19909;-81
2023/02/06 06:23:11;;;;;;;;;;;4.00;99.90;;;;;;5043459;28;19912;-80
2023/02/06 06:26:04;;;;;;;;;;;4.00;99.90;;;;;;5055987;28;19913;-81
2023/02/06 06:28:47;;;;;;;;;;;4.00;99.90;;;;;;5038399;28;20021;-80
2023/02/06 06:35:19;;;;;;;;;;;4.00;99.90;;;;;;5055471;28;19923;-82
2023/02/06 06:41:06;;;;;;;;;;;4.00;99.90;;;;;;4966825;28;19916;-82
2023/02/06 06:43:39;;;;;;;;;;;3.90;99.90;;;;;;5054060;28;19920;-80
2023/02/06 06:46:14;;;;;;;;;;;3.80;99.90;;;;;;5053489;28;19913;-81
2023/02/06 06:48:39;;;;;;;;;;;3.80;99.90;;;;;;5054182;28;19909;-80
2023/02/06 06:51:05;;;;;;;;;;;3.90;99.90;;;;;;5053558;28;20327;-80
2023/02/06 06:53:30;;;;;;;;;;;4.00;99.90;;;;;;5054023;28;19971;-81
2023/02/06 06:56:05;;;;;;;;;;;4.00;99.90;;;;;;5053854;28;20385;-82
2023/02/06 06:58:31;;;;;;;;;;;4.00;99.90;;;;;;5054042;28;19909;-81
2023/02/06 07:00:56;;;;;;;;;;;4.10;99.90;;;;;;5053494;28;19924;-82
2023/02/06 07:03:22;;;;;;;;;;;4.10;99.90;;;;;;5055302;28;19908;-82
2023/02/06 07:05:47;;;;;;;;;;;4.10;99.90;;;;;;5060113;28;19908;-81
2023/02/06 07:08:12;;;;;;;;;;;4.10;99.90;;;;;;5077144;28;19919;-81
2023/02/06 07:10:38;;;;;;;;;;;4.10;99.90;;;;;;5054244;28;19916;-81
2023/02/06 07:13:03;;;;;;;;;;;4.20;99.90;;;;;;5054048;28;19915;-82
2023/02/06 07:15:29;;;;;;;;;;;4.20;99.90;;;;;;5058740;28;20289;-82
2023/02/06 07:17:54;;;;;;;;;;;4.30;99.90;;;;;;5076726;28;19909;-82
2023/02/06 07:20:20;;;;;;;;;;;4.30;99.90;;;;;;5059058;28;19909;-81
2023/02/06 07:22:46;;;;;;;;;;;4.30;99.90;;;;;;5059044;28;19913;-81
2023/02/06 07:25:12;;;;;;;;;;;4.30;99.90;;;;;;5041424;28;20000;-82
2023/02/06 07:27:37;;;;;;;;;;;4.20;99.90;;;;;;5056837;28;20070;-80
2023/02/06 07:30:03;;;;;;;;;;;4.10;99.90;;;;;;5036684;28;20707;-82
2023/02/06 07:32:28;;;;;;;;;;;4.20;99.90;;;;;;5036952;28;19909;-80
2023/02/06 07:34:54;;;;;;;;;;;4.10;99.90;;;;;;5036390;28;19908;-81
2023/02/06 07:37:19;;;;;;;;;;;4.20;99.90;;;;;;5036306;28;19931;-81
2023/02/06 07:39:45;;;;;;;;;;;4.30;99.90;;;;;;5036427;28;19924;-80
2023/02/06 07:42:11;;;;;;;;;;;4.30;99.90;;;;;;5036336;28;20267;-81
2023/02/06 07:44:36;;;;;;;;;;;4.40;99.90;;;;;;5036148;28;19908;-80
2023/02/06 07:47:02;;;;;;;;;;;4.40;99.90;;;;;;5036243;28;19952;-79
2023/02/06 07:49:27;;;;;;;;;;;4.30;99.90;;;;;;5036584;28;19909;-81
2023/02/06 07:51:53;;;;;;;;;;;4.30;99.90;;;;;;5054365;28;20278;-81
2023/02/06 07:54:18;;;;;;;;;;;4.30;99.90;;;;;;5035848;28;19962;-80
2023/02/06 07:56:43;;;;;;;;;;;4.40;99.90;;;;;;5053881;28;19913;-81
2023/02/06 07:59:09;;;;;;;;;;;4.50;99.90;;;;;;5053853;28;19928;-81
2023/02/06 08:01:34;;;;;;;;;;;4.50;99.90;;;;;;5036067;28;20293;-80
2023/02/06 08:04:00;;;;;;;;;;;4.50;99.90;;;;;;5035727;28;20055;-80
2023/02/06 08:06:25;;;;;;;;;;;4.60;99.90;;;;;;5054034;28;20400;-82
2023/02/06 08:08:53;;;;;;;;;;;4.60;99.90;;;;;;5055470;28;19915;-81
2023/02/06 08:11:19;;;;;;;;;;;4.50;99.90;;;;;;5053350;28;20317;-80
2023/02/06 08:13:46;;;;;;;;;;;4.60;99.90;;;;;;5054014;28;20289;-81
2023/02/06 08:16:16;;;;;;;;;;;4.70;99.90;;;;;;5035936;28;19912;-80
2023/02/06 08:18:41;;;;;;;;;;;4.70;99.90;;;;;;5036175;28;20034;-81
2023/02/06 08:21:25;;;;;;;;;;;4.80;99.90;;;;;;5036253;28;19915;-80
2023/02/06 08:23:55;;;;;;;;;;;4.70;99.90;;;;;;5053781;28;19999;-81
2023/02/06 08:26:20;;;;;;;;;;;4.80;99.90;;;;;;5035581;28;19909;-81
2023/02/06 08:28:47;;;;;;;;;;;4.70;99.90;;;;;;5035818;28;20289;-81
2023/02/06 08:31:21;;;;;;;;;;;4.80;99.90;;;;;;5053040;28;19927;-82
2023/02/06 08:33:47;;;;;;;;;;;4.90;99.90;;;;;;5038802;28;19944;-81
2023/02/06 08:36:13;;;;;;;;;;;4.90;99.90;;;;;;5036740;28;19939;-81
2023/02/06 08:38:39;;;;;;;;;;;4.90;99.90;;;;;;5053465;28;19909;-82
2023/02/06 08:41:05;;;;;;;;;;;5.00;99.90;;;;;;5053362;28;19909;-80
2023/02/06 08:43:30;;;;;;;;;;;5.20;99.90;;;;;;5037990;28;19999;-82
2023/02/06 08:45:58;;;;;;;;;;;5.30;99.90;;;;;;5040165;28;19967;-82
2023/02/06 08:48:24;;;;;;;;;;;5.50;99.90;;;;;;5049053;28;19950;-82
2023/02/06 08:50:49;;;;;;;;;;;5.50;99.90;;;;;;5062140;28;19959;-81
2023/02/06 08:53:15;;;;;;;;;;;5.50;99.90;;;;;;5080251;28;19909;-82
2023/02/06 08:55:40;;;;;;;;;;;5.60;99.90;;;;;;5060598;28;19909;-82
2023/02/06 08:58:06;;;;;;;;;;;5.50;99.90;;;;;;5077886;28;19962;-82
2023/02/06 09:00:31;;;;;;;;;;;5.50;99.90;;;;;;5078840;28;19916;-82
2023/02/06 09:02:57;;;;;;;;;;;5.50;99.90;;;;;;5060037;28;19924;-81
2023/02/06 09:05:23;;;;;;;;;;;5.50;99.90;;;;;;5060966;28;19999;-82
2023/02/06 09:07:49;;;;;;;;;;;5.60;99.90;;;;;;5059806;28;19912;-81
2023/02/06 09:10:15;;;;;;;;;;;5.70;99.90;;;;;;5043435;28;20004;-81
2023/02/06 09:12:40;;;;;;;;;;;5.70;99.90;;;;;;5060802;28;19944;-81
2023/02/06 09:15:06;;;;;;;;;;;5.70;99.90;;;;;;5043591;28;19920;-82
2023/02/06 09:17:31;;;;;;;;;;;5.70;99.90;;;;;;5061319;28;19909;-82
2023/02/06 09:19:57;;;;;;;;;;;5.70;99.90;;;;;;5042591;28;19975;-82
2023/02/06 09:22:23;;;;;;;;;;;5.70;99.90;;;;;;5042166;28;19909;-82
2023/02/06 09:24:48;;;;;;;;;;;5.70;99.90;;;;;;5060229;28;19909;-82
2023/02/06 09:27:14;;;;;;;;;;;5.60;99.90;;;;;;5041773;28;19931;-82
2023/02/06 09:29:39;;;;;;;;;;;5.80;99.90;;;;;;5041751;28;19962;-82
2023/02/06 09:32:05;;;;;;;;;;;5.90;99.90;;;;;;5040328;28;20437;-81
2023/02/06 09:34:30;;;;;;;;;;;5.90;99.90;;;;;;5040831;28;19909;-81
2023/02/06 09:36:56;;;;;;;;;;;6.00;99.90;;;;;;5040959;28;19947;-82
2023/02/06 09:39:22;;;;;;;;;;;6.00;99.90;;;;;;5058046;28;19908;-82
2023/02/06 09:41:49;;;;;;;;;;;6.00;99.90;;;;;;5040216;28;20441;-82
2023/02/06 09:44:14;;;;;;;;;;;6.10;99.90;;;;;;5058291;28;19969;-81
2023/02/06 09:46:59;;;;;;;;;;;6.20;99.90;;;;;;5040351;28;19931;-80
2023/02/06 09:49:29;;;;;;;;;;;6.20;99.90;;;;;;5050298;28;19920;-82
2023/02/06 09:51:54;;;;;;;;;;;6.20;99.90;;;;;;5076307;28;20361;-80
2023/02/06 09:54:57;;;;;;;;;;;6.20;99.90;;;;;;5076407;28;19957;-81
2023/02/06 09:57:30;;;;;;;;;;;6.30;99.90;;;;;;5015542;28;20009;-84
2023/02/06 10:00:00;;;;;;;;;;;6.50;99.90;;;;;;5069060;28;20003;-85
2023/02/06 10:02:25;;;;;;;;;;;6.70;99.90;;;;;;5075222;28;19947;-83
2023/02/06 10:04:50;;;;;;;;;;;6.90;99.90;;;;;;5076025;28;20692;-84
2023/02/06 10:07:28;;;;;;;;;;;7.10;99.90;;;;;;5076158;28;20293;-83
2023/02/06 10:09:53;;;;;;;;;;;7.20;99.90;;;;;;5075388;28;19912;-84
2023/02/06 10:12:48;;;;;;;;;;;7.30;99.90;;;;;;5074795;28;19908;-84
2023/02/06 10:15:16;;;;;;;;;;;7.40;99.90;;;;;;5005545;28;19972;-84
2023/02/06 10:18:02;;;;;;;;;;;7.60;99.90;;;;;;5075542;28;19908;-84
2023/02/06 10:20:30;;;;;;;;;;;7.70;99.90;;;;;;5044398;28;19909;-84
2023/02/06 10:23:16;;;;;;;;;;;7.90;99.90;;;;;;5075061;28;19909;-84
2023/02/06 10:25:48;;;;;;;;;;;8.00;99.90;;;;;;5076118;28;19915;-83
2023/02/06 10:28:20;;;;;;;;;;;8.10;99.90;;;;;;5074986;28;20358;-83
2023/02/06 10:30:58;;;;;;;;;;;8.20;99.90;;;;;;5074773;28;19912;-83
2023/02/06 10:33:26;;;;;;;;;;;8.30;99.90;;;;;;5075148;28;19920;-84
2023/02/06 10:49:08;;;;;;;;;;;8.10;99.90;;;;;;5014679;28;20392;-87
2023/02/06 11:10:55;;;;;;;;;;;;;;;;;;;;;
2023/02/06 11:37:55;;;;;;;;;;;13.20;99.90;;;;;;5038618;28;19933;-83
2023/02/06 11:40:35;;;;;;;;;;;15.60;99.90;;;;;;5037095;28;19917;-83
2023/02/06 11:43:24;;;;;;;;;;;18.00;96.10;;;;;;5035441;28;20295;-83
2023/02/06 11:46:10;;;;;;;;;;;16.90;91.80;;;;;;5035284;28;19967;-83
2023/02/06 11:48:37;;;;;;;;;;;15.60;94.60;;;;;;5027901;28;19914;-81
2023/02/06 11:51:03;;;;;;;;;;;17.80;91.80;;;;;;5027409;28;19925;-79
2023/02/06 11:53:29;;;;;;;;;;;19.40;84.30;;;;;;5024375;28;20374;-82
2023/02/06 11:56:10;;;;;;;;;;;20.20;78.70;;;;;;5034904;28;20656;-82
2023/02/06 11:58:36;;;;;;;;;;;20.10;72.00;;;;;;5036611;28;19956;-83
2023/02/06 12:01:08;;;;;;;;;;;17.50;70.10;;;;;;5031996;28;20264;-83
2023/02/06 12:03:35;;;;;;;;;;;15.70;75.10;;;;;;5025409;28;20409;-82
2023/02/06 12:06:12;;;;;;;;;;;14.50;86.90;;;;;;5033956;28;20424;-83
2023/02/06 12:08:41;;;;;;;;;;;14.10;92.00;;;;;;5035124;28;20356;-83
2023/02/06 12:11:12;;;;;;;;;;;14.80;93.90;;;;;;5035485;28;20003;-83
2023/02/06 12:13:40;;;;;;;;;;;14.10;94.30;;;;;;5014624;28;19909;-83
2023/02/06 12:16:07;;;;;;;;;;;13.10;96.90;;;;;;5015588;28;19909;-83
2023/02/06 12:18:34;;;;;;;;;;;12.00;99.90;;;;;;5014928;28;19910;-83
2023/02/06 12:21:04;;;;;;;;;;;11.20;99.90;;;;;;5014295;28;19921;-82
2023/02/06 12:23:44;;;;;;;;;;;12.10;99.90;;;;;;5015078;28;20387;-82
2023/02/06 12:26:20;;;;;;;;;;;13.90;99.90;;;;;;5016056;28;20012;-83
2023/02/06 12:28:49;;;;;;;;;;;15.60;97.60;;;;;;5014318;28;20402;-82
2023/02/06 12:31:20;;;;;;;;;;;17.10;93.30;;;;;;5014089;28;19910;-83
2023/02/06 12:33:47;;;;;;;;;;;17.60;89.00;;;;;;5016064;28;19944;-81
2023/02/06 12:36:33;;;;;;;;;;;18.20;85.90;;;;;;5014217;28;19959;-82
2023/02/06 12:39:15;;;;;;;;;;;18.50;82.20;;;;;;5014892;28;19920;-82
2023/02/06 12:41:46;;;;;;;;;;;18.30;83.10;;;;;;5015365;28;19913;-82
2023/02/06 12:44:17;;;;;;;;;;;18.10;78.00;;;;;;5014384;28;19949;-82
2023/02/06 12:46:45;;;;;;;;;;;18.00;77.00;;;;;;5015901;28;19960;-83
2023/02/06 12:49:15;;;;;;;;;;;18.70;77.90;;;;;;5014481;28;19989;-80
2023/02/06 12:51:40;;;;;;;;;;;18.80;75.90;;;;;;5016205;28;19916;-81
2023/02/06 12:54:15;;;;;;;;;;;17.70;73.90;;;;;;5016027;28;19909;-81
2023/02/06 12:56:48;;;;;;;;;;;16.80;77.50;;;;;;5016490;28;19910;-81
2023/02/06 12:59:36;;;;;;;;;;;16.00;79.80;;;;;;5015108;28;19955;-81
2023/02/06 13:02:21;;;;;;;;;;;15.20;84.30;;;;;;5014801;28;20400;-81
2023/02/06 13:04:47;;;;;;;;;;;14.30;89.10;;;;;;5014843;28;19913;-81
2023/02/06 13:07:14;;;;;;;;;;;14.00;93.10;;;;;;5016196;28;19910;-80
2023/02/06 13:09:48;;;;;;;;;;;13.60;96.30;;;;;;5028372;28;19948;-80
2023/02/06 13:12:24;;;;;;;;;;;13.40;99.90;;;;;;5014066;28;20397;-80
2023/02/06 13:15:06;;;;;;;;;;;12.90;99.90;;;;;;5014640;28;19910;-81
2023/02/06 13:17:43;;;;;;;;;;;12.50;99.90;;;;;;5015683;28;19920;-81
2023/02/06 13:20:13;;;;;;;;;;;12.00;99.90;;;;;;5014167;28;19914;-80
2023/02/06 13:22:39;;;;;;;;;;;12.40;99.90;;;;;;5014610;28;19913;-80
2023/02/06 13:25:23;;;;;;;;;;;12.10;99.90;;;;;;5014347;28;19933;-79
2023/02/06 13:27:48;;;;;;;;;;;11.50;99.90;;;;;;5016175;28;20000;-80
2023/02/06 13:30:29;;;;;;;;;;;11.00;99.90;;;;;;5014454;28;19952;-80
2023/02/06 13:32:56;;;;;;;;;;;10.80;99.90;;;;;;5014805;28;19913;-80
2023/02/06 13:35:26;;;;;;;;;;;10.50;99.90;;;;;;5015784;28;19944;-80
2023/02/06 13:38:11;;;;;;;;;;;10.30;99.90;;;;;;5015543;28;19910;-80
2023/02/06 13:40:36;;;;;;;;;;;10.10;99.90;;;;;;5015036;28;19914;-80
2023/02/06 13:43:18;;;;;;;;;;;9.70;99.90;;;;;;5014659;28;19948;-81
2023/02/06 13:46:06;;;;;;;;;;;9.50;99.90;;;;;;5013706;28;19964;-81
2023/02/06 13:48:52;;;;;;;;;;;9.40;99.90;;;;;;5019623;28;19913;-81
2023/02/06 13:51:18;;;;;;;;;;;9.30;99.90;;;;;;5029888;28;19919;-80
2023/02/06 13:53:54;;;;;;;;;;;9.20;99.90;;;;;;5036088;28;20004;-82
2023/02/06 13:56:20;;;;;;;;;;;9.00;99.90;;;;;;5038485;28;19963;-81
2023/02/06 13:58:50;;;;;;;;;;;9.10;99.90;;;;;;5036677;28;20188;-81
2023/02/06 14:01:27;;;;;;;;;;;9.00;99.90;;;;;;5038050;28;19980;-80
2023/02/06 14:03:53;;;;;;;;;;;9.00;99.90;;;;;;5038371;28;19909;-80
2023/02/06 14:06:19;;;;;;;;;;;8.90;99.90;;;;;;5038291;28;19913;-79
2023/02/06 14:08:55;;;;;;;;;;;9.00;99.90;;;;;;5036901;28;19932;-79
2023/02/06 14:11:39;;;;;;;;;;;9.10;99.90;;;;;;5037159;28;19958;-81
2023/02/06 14:14:26;;;;;;;;;;;9.10;99.90;;;;;;5038439;28;19996;-80
2023/02/06 14:17:09;;;;;;;;;;;8.80;99.90;;;;;;5037004;28;19948;-79
2023/02/06 14:19:54;;;;;;;;;;;8.90;99.90;;;;;;5037732;28;19910;-80
2023/02/06 14:22:30;;;;;;;;;;;8.80;99.90;;;;;;5037360;28;20268;-81
2023/02/06 14:25:30;;;;;;;;;;;8.80;99.90;;;;;;5036537;28;19944;-81
2023/02/06 14:28:01;;;;;;;;;;;8.80;99.90;;;;;;5037488;28;19916;-81
2023/02/06 14:30:38;;;;;;;;;;;8.80;99.90;;;;;;5035174;28;19963;-80
2023/02/06 14:33:04;;;;;;;;;;;8.80;99.90;;;;;;5036709;28;20342;-81
2023/02/06 14:35:39;;;;;;;;;;;8.80;99.90;;;;;;5046453;28;19933;-79
2023/02/06 14:38:13;;;;;;;;;;;8.80;99.90;;;;;;5043773;28;20414;-80
2023/02/06 14:40:41;;;;;;;;;;;8.80;99.90;;;;;;5040101;28;19917;-81
2023/02/06 14:43:12;;;;;;;;;;;8.60;99.90;;;;;;5038967;28;19949;-79
2023/02/06 14:45:39;;;;;;;;;;;8.60;99.90;;;;;;5040734;28;19958;-81
2023/02/06 14:48:15;;;;;;;;;;;8.60;99.90;;;;;;5041918;28;19909;-81
2023/02/06 14:50:45;;;;;;;;;;;8.60;99.90;;;;;;5039069;28;19909;-81
2023/02/06 14:53:19;;;;;;;;;;;8.70;99.90;;;;;;5037961;28;19959;-81
2023/02/06 14:55:46;;;;;;;;;;;8.60;99.90;;;;;;5039891;28;19909;-81
2023/02/06 14:58:28;;;;;;;;;;;8.60;99.90;;;;;;5041703;28;20281;-81
2023/02/06 15:00:55;;;;;;;;;;;8.50;99.90;;;;;;5038983;28;19913;-81
2023/02/06 15:03:24;;;;;;;;;;;8.60;99.90;;;;;;5036712;28;20327;-81
2023/02/06 15:06:04;;;;;;;;;;;8.50;99.90;;;;;;5037032;28;19932;-81
2023/02/06 15:08:30;;;;;;;;;;;8.50;99.90;;;;;;5036766;28;20274;-80
2023/02/06 15:10:57;;;;;;;;;;;8.60;99.90;;;;;;5036445;28;19916;-80
2023/02/06 15:13:33;;;;;;;;;;;8.70;99.90;;;;;;5035758;28;20371;-80
2023/02/06 15:16:01;;;;;;;;;;;8.70;99.90;;;;;;5035288;28;20341;-79
2023/02/06 15:18:26;;;;;;;;;;;8.50;99.90;;;;;;5035655;28;19913;-79
2023/02/06 15:21:12;;;;;;;;;;;8.40;99.90;;;;;;5034932;28;19936;-79
2023/02/06 15:23:56;;;;;;;;;;;8.40;99.90;;;;;;5036181;28;20326;-80
2023/02/06 15:26:41;;;;;;;;;;;8.40;99.90;;;;;;5035807;28;19909;-80
2023/02/06 15:29:15;;;;;;;;;;;8.30;99.90;;;;;;5034446;28;20000;-80
2023/02/06 15:31:45;;;;;;;;;;;8.30;99.90;;;;;;5035089;28;20007;-82
2023/02/06 15:34:13;;;;;;;;;;;8.10;99.90;;;;;;5034085;28;19971;-81
2023/02/06 15:36:38;;;;;;;;;;;8.20;99.90;;;;;;5035335;28;19917;-79
2023/02/06 15:39:06;;;;;;;;;;;8.20;99.90;;;;;;5033877;28;19915;-80
2023/02/06 15:41:33;;;;;;;;;;;8.20;99.90;;;;;;5034216;28;20370;-79
2023/02/06 15:44:02;;;;;;;;;;;8.20;99.90;;;;;;5035205;28;20685;-81
2023/02/06 15:46:29;;;;;;;;;;;8.20;99.90;;;;;;5035233;28;19964;-80
2023/02/06 15:48:56;;;;;;;;;;;8.10;99.90;;;;;;5035918;28;19909;-79
2023/02/06 15:51:49;;;;;;;;;;;8.10;99.90;;;;;;5033663;28;19909;-80
2023/02/06 15:54:14;;;;;;;;;;;8.10;99.90;;;;;;5033266;28;19917;-80
2023/02/06 15:56:41;;;;;;;;;;;8.00;99.90;;;;;;5033076;28;19909;-79
2023/02/06 15:59:13;;;;;;;;;;;8.00;99.90;;;;;;5032030;28;19909;-81
2023/02/06 16:01:39;;;;;;;;;;;8.00;99.90;;;;;;5031216;28;19999;-81
2023/02/06 16:04:17;;;;;;;;;;;7.90;99.90;;;;;;5027595;28;20069;-80
2023/02/06 16:06:44;;;;;;;;;;;7.90;99.90;;;;;;5017388;28;19909;-79
2023/02/06 16:09:15;;;;;;;;;;;7.90;99.90;;;;;;5031051;28;19916;-80
2023/02/06 16:11:46;;;;;;;;;;;7.90;99.90;;;;;;5030742;28;19909;-79
2023/02/06 16:14:20;;;;;;;;;;;7.80;99.90;;;;;;5031462;28;19909;-80